Time;durP1;ratioP1;P1;durP2;ratioP2;P2;SDS_P1;SDS_P2;PMS_P1;PMS_P2;Temp;Humidity;BMP_temperature;BMP_pressure;BME280_temperature;BME280_humidity;BME280_pressure;Samples;Min_cycle;Max_cycle;Signal;HPM_P1;HPM_P2
2022/01/29 00:01:34;;;;;;;0.73;0.50;;;6.10;99.90;;;;;;5065471;28;20205;-78
2022/01/29 00:03:59;;;;;;;0.57;0.57;;;6.10;99.90;;;;;;5066016;28;20829;-78
2022/01/29 00:06:25;;;;;;;0.90;0.80;;;6.10;99.90;;;;;;5066780;28;20188;-78
2022/01/29 00:08:53;;;;;;;0.40;0.40;;;6.10;99.90;;;;;;5066317;28;20210;-78
2022/01/29 00:11:26;;;;;;;2.23;1.33;;;6.10;99.90;;;;;;5064752;28;20209;-78
2022/01/29 00:13:52;;;;;;;0.30;0.30;;;6.20;99.90;;;;;;5065792;28;20177;-78
2022/01/29 00:16:17;;;;;;;1.90;0.83;;;6.20;99.90;;;;;;5066611;28;22044;-78
2022/01/29 00:18:43;;;;;;;1.37;0.93;;;6.20;99.90;;;;;;5065841;28;20278;-78
2022/01/29 00:21:08;;;;;;;0.50;0.50;;;6.10;99.90;;;;;;5067523;28;20229;-78
2022/01/29 00:23:34;;;;;;;0.47;0.47;;;6.20;99.90;;;;;;5065508;28;20194;-79
2022/01/29 00:26:00;;;;;;;0.40;0.40;;;6.20;99.90;;;;;;5066171;28;20185;-78
2022/01/29 00:28:27;;;;;;;0.73;0.73;;;6.20;99.90;;;;;;5066928;28;20185;-78
2022/01/29 00:30:52;;;;;;;1.67;1.57;;;6.20;99.90;;;;;;5064805;28;20215;-78
2022/01/29 00:33:18;;;;;;;0.83;0.70;;;6.20;99.90;;;;;;5066966;28;20185;-78
2022/01/29 00:35:43;;;;;;;1.13;0.57;;;6.20;99.90;;;;;;5066182;28;20235;-79
2022/01/29 00:38:09;;;;;;;0.43;0.43;;;6.20;99.90;;;;;;5066675;28;20173;-79
2022/01/29 00:40:36;;;;;;;0.93;0.93;;;6.20;99.90;;;;;;5066868;28;20208;-78
2022/01/29 00:43:04;;;;;;;1.03;0.90;;;6.30;99.90;;;;;;5065340;28;20189;-78
2022/01/29 00:45:30;;;;;;;0.47;0.47;;;6.30;99.90;;;;;;5065639;28;20696;-78
2022/01/29 00:47:55;;;;;;;0.30;0.30;;;6.30;99.90;;;;;;5064992;28;20185;-78
2022/01/29 00:50:21;;;;;;;0.57;0.57;;;6.20;99.90;;;;;;5065678;28;20215;-78
2022/01/29 00:52:49;;;;;;;0.70;0.57;;;6.20;99.90;;;;;;5063369;28;20223;-78
2022/01/29 00:55:15;;;;;;;0.30;0.30;;;6.20;99.90;;;;;;5065963;28;20720;-78
2022/01/29 00:57:41;;;;;;;0.20;0.20;;;6.20;99.90;;;;;;5065663;28;20177;-78
2022/01/29 01:00:10;;;;;;;0.93;0.20;;;6.10;99.90;;;;;;5063905;28;20220;-79
2022/01/29 01:02:35;;;;;;;0.73;0.73;;;6.10;99.90;;;;;;5064564;28;20240;-79
2022/01/29 01:05:02;;;;;;;1.07;0.20;;;6.20;99.90;;;;;;5067401;28;20186;-79
2022/01/29 01:07:27;;;;;;;0.43;0.43;;;6.20;99.90;;;;;;5064959;28;20279;-79
2022/01/29 01:09:53;;;;;;;0.40;0.37;;;6.30;99.90;;;;;;5065972;28;20295;-80
2022/01/29 01:12:18;;;;;;;0.60;0.60;;;6.30;99.90;;;;;;5065317;28;20272;-80
2022/01/29 01:14:44;;;;;;;0.93;0.93;;;6.30;99.90;;;;;;5065456;28;20279;-80
2022/01/29 01:17:10;;;;;;;0.10;0.10;;;6.30;99.90;;;;;;5063168;28;20188;-79
2022/01/29 01:19:35;;;;;;;0.10;0.10;;;6.30;99.90;;;;;;5064805;28;20197;-80
2022/01/29 01:22:01;;;;;;;0.50;0.50;;;6.30;99.90;;;;;;5065218;28;20213;-79
2022/01/29 01:24:27;;;;;;;0.83;0.30;;;6.20;99.90;;;;;;5064310;28;20189;-79
2022/01/29 01:26:53;;;;;;;2.73;1.10;;;6.30;99.90;;;;;;5065301;28;20583;-80
2022/01/29 01:29:19;;;;;;;0.50;0.50;;;6.20;99.90;;;;;;5065331;28;20209;-79
2022/01/29 01:31:45;;;;;;;0.30;0.30;;;6.20;99.90;;;;;;5065596;28;20569;-80
2022/01/29 01:34:12;;;;;;;0.20;0.20;;;6.20;99.90;;;;;;5063563;28;20173;-79
2022/01/29 01:36:45;;;;;;;0.40;0.40;;;6.20;99.90;;;;;;5064298;28;20237;-79
2022/01/29 01:39:14;;;;;;;0.40;0.40;;;6.10;99.90;;;;;;5062993;28;20743;-79
2022/01/29 01:41:42;;;;;;;0.37;0.37;;;6.10;99.90;;;;;;5064332;28;20219;-81
2022/01/29 01:44:13;;;;;;;0.20;0.20;;;6.10;99.90;;;;;;5063036;28;20227;-79
2022/01/29 01:46:38;;;;;;;0.40;0.40;;;6.10;99.90;;;;;;5064550;28;20920;-80
2022/01/29 01:49:04;;;;;;;0.93;0.93;;;6.10;99.90;;;;;;5065406;28;20271;-79
2022/01/29 01:51:30;;;;;;;1.83;0.50;;;6.10;99.90;;;;;;5065170;28;20794;-79
2022/01/29 01:53:55;;;;;;;0.53;0.50;;;6.10;99.90;;;;;;5064895;28;20555;-79
2022/01/29 01:56:21;;;;;;;0.20;0.20;;;6.00;99.90;;;;;;5062311;28;20193;-81
2022/01/29 01:58:47;;;;;;;0.60;0.30;;;6.00;99.90;;;;;;5064513;28;20193;-80
2022/01/29 02:01:13;;;;;;;0.33;0.30;;;6.00;99.90;;;;;;5063572;28;20201;-80
2022/01/29 02:03:38;;;;;;;1.87;0.60;;;6.00;99.90;;;;;;5065068;28;20210;-80
2022/01/29 02:06:05;;;;;;;0.40;0.40;;;6.00;99.90;;;;;;5063717;28;20199;-81
2022/01/29 02:08:31;;;;;;;2.30;0.83;;;5.90;99.90;;;;;;5062835;28;20280;-79
2022/01/29 02:11:05;;;;;;;0.67;0.60;;;5.90;99.90;;;;;;5063792;28;20323;-79
2022/01/29 02:13:31;;;;;;;0.63;0.63;;;6.00;99.90;;;;;;5063843;28;20181;-81
2022/01/29 02:15:57;;;;;;;0.37;0.37;;;5.90;99.90;;;;;;5064449;28;20635;-80
2022/01/29 02:18:23;;;;;;;0.53;0.53;;;5.90;99.90;;;;;;5062275;28;20195;-79
2022/01/29 02:20:49;;;;;;;0.10;0.10;;;5.90;99.90;;;;;;5064189;28;20208;-80
2022/01/29 02:23:17;;;;;;;0.40;0.40;;;5.90;99.90;;;;;;5063849;28;20343;-79
2022/01/29 02:25:45;;;;;;;0.20;0.20;;;5.90;99.90;;;;;;5063606;28;20255;-79
2022/01/29 02:28:16;;;;;;;0.53;0.53;;;5.90;99.90;;;;;;5063455;28;20181;-79
2022/01/29 02:30:45;;;;;;;0.70;0.60;;;5.90;99.90;;;;;;5063776;28;20300;-79
2022/01/29 02:33:13;;;;;;;0.60;0.60;;;5.90;99.90;;;;;;5062692;28;20177;-80
2022/01/29 02:35:41;;;;;;;0.77;0.50;;;5.90;99.90;;;;;;5064062;28;20268;-79
2022/01/29 02:38:07;;;;;;;2.43;0.30;;;5.90;99.90;;;;;;5064396;28;20181;-82
2022/01/29 02:40:42;;;;;;;0.20;0.20;;;5.90;99.90;;;;;;5063782;28;20204;-79
2022/01/29 02:43:23;;;;;;;0.30;0.20;;;5.90;99.90;;;;;;5063736;28;20188;-79
2022/01/29 02:45:53;;;;;;;0.33;0.20;;;5.90;99.90;;;;;;5061669;28;20188;-79
2022/01/29 02:48:20;;;;;;;1.67;0.40;;;6.00;99.90;;;;;;5063478;28;20263;-79
2022/01/29 02:50:46;;;;;;;0.10;0.10;;;6.00;99.90;;;;;;5063352;28;20212;-79
2022/01/29 02:53:12;;;;;;;0.30;0.20;;;6.00;99.90;;;;;;5062281;28;20231;-79
2022/01/29 02:55:39;;;;;;;0.83;0.40;;;6.00;99.90;;;;;;5064521;28;20196;-79
2022/01/29 02:58:05;;;;;;;0.30;0.30;;;6.10;99.90;;;;;;5063653;28;20176;-79
2022/01/29 03:00:30;;;;;;;1.50;1.40;;;6.10;99.90;;;;;;5062934;28;20212;-80
2022/01/29 03:02:56;;;;;;;0.70;0.63;;;6.10;99.90;;;;;;5064506;28;20246;-80
2022/01/29 03:05:21;;;;;;;0.20;0.20;;;6.00;99.90;;;;;;5063970;28;20330;-80
2022/01/29 03:07:47;;;;;;;0.50;0.50;;;6.00;99.90;;;;;;5061908;28;20228;-80
2022/01/29 03:10:13;;;;;;;0.40;0.40;;;5.90;99.90;;;;;;5062591;28;20223;-79
2022/01/29 03:12:40;;;;;;;0.67;0.60;;;6.00;99.90;;;;;;5064536;28;20540;-81
2022/01/29 03:15:07;;;;;;;0.37;0.37;;;6.00;99.90;;;;;;5063349;28;20275;-80
2022/01/29 03:17:32;;;;;;;0.57;0.57;;;5.90;99.90;;;;;;5063803;28;20177;-81
2022/01/29 03:19:58;;;;;;;2.03;1.20;;;5.80;99.90;;;;;;5063413;28;20205;-80
2022/01/29 03:22:23;;;;;;;0.53;0.53;;;5.80;99.90;;;;;;5063007;28;20185;-80
2022/01/29 03:24:49;;;;;;;0.40;0.17;;;5.70;99.90;;;;;;5063700;28;20189;-79
2022/01/29 03:27:14;;;;;;;0.47;0.47;;;5.70;99.90;;;;;;5063477;28;20196;-81
2022/01/29 03:29:40;;;;;;;0.40;0.40;;;5.70;99.90;;;;;;5062715;28;20191;-79
2022/01/29 03:32:06;;;;;;;0.67;0.67;;;5.70;99.90;;;;;;5063092;28;20220;-80
2022/01/29 03:34:32;;;;;;;0.33;0.33;;;5.60;99.90;;;;;;5063198;28;20272;-80
2022/01/29 03:36:57;;;;;;;0.40;0.40;;;5.70;99.90;;;;;;5063279;28;20339;-79
2022/01/29 03:39:25;;;;;;;0.30;0.30;;;5.70;99.90;;;;;;5062016;28;20275;-80
2022/01/29 03:41:51;;;;;;;0.87;0.30;;;5.70;99.90;;;;;;5063570;28;20201;-80
2022/01/29 03:44:17;;;;;;;1.63;0.80;;;5.70;99.90;;;;;;5062739;28;20203;-79
2022/01/29 03:46:43;;;;;;;0.97;0.60;;;5.60;99.90;;;;;;5064218;28;20184;-79
2022/01/29 03:49:09;;;;;;;0.83;0.83;;;5.60;99.90;;;;;;5068650;28;20721;-80
2022/01/29 03:51:34;;;;;;;0.23;0.23;;;5.60;99.90;;;;;;5075738;28;20221;-80
2022/01/29 03:54:00;;;;;;;0.40;0.40;;;5.60;99.90;;;;;;5075651;28;20200;-80
2022/01/29 03:56:25;;;;;;;0.73;0.73;;;5.70;99.90;;;;;;5074654;28;20193;-79
2022/01/29 03:58:51;;;;;;;0.27;0.27;;;5.80;99.90;;;;;;5060907;28;20254;-79
2022/01/29 04:01:17;;;;;;;0.83;0.83;;;5.80;99.90;;;;;;5063702;28;20577;-79
2022/01/29 04:03:42;;;;;;;1.73;0.87;;;5.80;99.90;;;;;;5062955;28;20177;-79
2022/01/29 04:06:08;;;;;;;1.50;1.47;;;5.80;99.90;;;;;;5064051;28;20267;-80
2022/01/29 04:08:40;;;;;;;0.43;0.43;;;5.80;99.90;;;;;;5065740;28;20261;-79
2022/01/29 04:11:07;;;;;;;0.50;0.50;;;5.80;99.90;;;;;;5067390;28;20215;-79
2022/01/29 04:13:32;;;;;;;1.50;0.63;;;5.80;99.90;;;;;;5065536;28;20220;-79
2022/01/29 04:15:58;;;;;;;0.80;0.47;;;5.80;99.90;;;;;;5065243;28;20177;-79
2022/01/29 04:18:23;;;;;;;0.40;0.40;;;5.80;99.90;;;;;;5065103;28;20193;-79
2022/01/29 04:20:49;;;;;;;0.20;0.20;;;5.80;99.90;;;;;;5067861;28;20209;-79
2022/01/29 04:23:14;;;;;;;0.93;0.93;;;5.90;99.90;;;;;;5064714;28;20927;-79
2022/01/29 04:25:40;;;;;;;1.00;0.30;;;5.90;99.90;;;;;;5064614;28;20192;-80
2022/01/29 04:28:07;;;;;;;0.10;0.10;;;6.00;99.90;;;;;;5065551;28;20260;-80
2022/01/29 04:30:39;;;;;;;0.50;0.50;;;5.90;99.90;;;;;;5066394;28;20256;-79
2022/01/29 04:35:49;;;;;;;0.47;0.40;;;5.90;99.90;;;;;;5066846;28;20167;-79
2022/01/29 04:38:15;;;;;;;1.00;0.87;;;5.90;99.90;;;;;;5064583;28;20181;-79
2022/01/29 04:40:41;;;;;;;1.13;1.03;;;5.90;99.90;;;;;;5065780;28;20227;-79
2022/01/29 04:43:07;;;;;;;1.43;1.20;;;5.90;99.90;;;;;;5065065;28;20187;-79
2022/01/29 04:45:32;;;;;;;0.30;0.30;;;6.00;99.90;;;;;;5066522;28;20200;-79
2022/01/29 04:47:58;;;;;;;1.13;0.77;;;6.00;99.90;;;;;;5066967;28;20238;-80
2022/01/29 04:50:24;;;;;;;1.80;0.30;;;6.00;99.90;;;;;;5065071;28;22165;-79
2022/01/29 04:52:49;;;;;;;0.40;0.40;;;6.10;99.90;;;;;;5066406;28;20219;-79
2022/01/29 04:55:15;;;;;;;1.60;0.63;;;6.10;99.90;;;;;;5065170;28;20609;-79
2022/01/29 04:57:41;;;;;;;1.80;0.40;;;6.10;99.90;;;;;;5066166;28;20185;-80
2022/01/29 05:00:20;;;;;;;1.30;0.53;;;6.10;99.90;;;;;;5064618;28;20216;-80
2022/01/29 05:02:51;;;;;;;2.10;0.47;;;6.10;99.90;;;;;;5065515;28;20197;-79
2022/01/29 05:05:16;;;;;;;0.40;0.40;;;6.10;99.90;;;;;;5066480;28;20213;-81
2022/01/29 05:07:42;;;;;;;0.30;0.30;;;6.10;99.90;;;;;;5065892;28;20354;-80
2022/01/29 05:10:08;;;;;;;0.83;0.50;;;6.10;99.90;;;;;;5066354;28;20204;-79
2022/01/29 05:12:52;;;;;;;1.10;1.07;;;6.10;99.90;;;;;;5063960;28;20181;-79
2022/01/29 05:15:30;;;;;;;0.43;0.43;;;6.10;99.90;;;;;;5063039;28;20214;-80
2022/01/29 05:28:52;;;;;;;0.33;0.33;;;5.90;99.90;;;;;;5073026;28;20192;-79
2022/01/29 05:31:17;;;;;;;0.30;0.30;;;5.90;99.90;;;;;;5070002;28;20592;-79
2022/01/29 05:33:43;;;;;;;0.47;0.40;;;5.90;99.90;;;;;;5078720;28;20667;-79
2022/01/29 05:36:08;;;;;;;0.83;0.73;;;5.90;99.90;;;;;;5070234;28;20677;-79
2022/01/29 05:38:34;;;;;;;1.87;0.20;;;5.90;99.90;;;;;;5062577;28;20272;-79
2022/01/29 05:41:01;;;;;;;0.97;0.83;;;5.90;99.90;;;;;;5064905;28;20679;-79
2022/01/29 05:43:26;;;;;;;0.40;0.40;;;5.80;99.90;;;;;;5065226;28;20231;-79
2022/01/29 05:45:52;;;;;;;0.70;0.53;;;5.80;99.90;;;;;;5063735;28;20186;-79
2022/01/29 05:48:17;;;;;;;0.40;0.40;;;5.80;99.90;;;;;;5064309;28;20205;-79
2022/01/29 05:50:43;;;;;;;0.30;0.30;;;5.70;99.90;;;;;;5063396;28;20276;-79
2022/01/29 05:53:09;;;;;;;0.73;0.23;;;5.80;99.90;;;;;;5064565;28;20181;-79
2022/01/29 05:55:34;;;;;;;0.10;0.10;;;5.80;99.90;;;;;;5062621;28;20181;-79
2022/01/29 05:58:00;;;;;;;0.57;0.30;;;5.80;99.90;;;;;;5063983;28;20184;-80
2022/01/29 06:00:25;;;;;;;0.50;0.50;;;5.80;99.90;;;;;;5064296;28;20221;-79
2022/01/29 06:03:02;;;;;;;0.73;0.73;;;5.90;99.90;;;;;;5063108;28;20188;-79
2022/01/29 06:05:27;;;;;;;0.70;0.70;;;5.90;99.90;;;;;;5062094;28;20288;-79
2022/01/29 06:07:53;;;;;;;0.47;0.30;;;5.90;99.90;;;;;;5064638;28;20264;-79
2022/01/29 06:10:19;;;;;;;0.97;0.83;;;6.00;99.90;;;;;;5062428;28;20213;-79
2022/01/29 06:12:45;;;;;;;0.70;0.60;;;6.00;99.90;;;;;;5062512;28;20192;-79
2022/01/29 06:15:11;;;;;;;0.13;0.13;;;6.00;99.90;;;;;;5062695;28;20242;-79
2022/01/29 06:17:38;;;;;;;1.70;0.40;;;5.90;99.90;;;;;;5062996;28;20610;-79
2022/01/29 06:20:04;;;;;;;0.43;0.43;;;5.90;99.90;;;;;;5063720;28;20209;-78
2022/01/29 06:22:30;;;;;;;0.67;0.60;;;5.90;99.90;;;;;;5065933;28;20181;-78
2022/01/29 06:24:56;;;;;;;0.93;0.27;;;5.90;99.90;;;;;;5064936;28;20844;-78
2022/01/29 06:27:21;;;;;;;1.40;0.57;;;5.80;99.90;;;;;;5064752;28;20193;-78
2022/01/29 06:29:47;;;;;;;0.30;0.30;;;5.80;99.90;;;;;;5062760;28;20186;-78
2022/01/29 06:32:12;;;;;;;0.40;0.40;;;5.80;99.90;;;;;;5072720;28;20197;-78
2022/01/29 06:34:38;;;;;;;1.07;1.00;;;5.80;99.90;;;;;;5063067;28;20196;-78
2022/01/29 06:37:03;;;;;;;0.63;0.40;;;5.70;99.90;;;;;;5064099;28;20196;-78
2022/01/29 06:39:29;;;;;;;0.40;0.40;;;5.80;99.90;;;;;;5063506;28;20185;-78
2022/01/29 06:41:54;;;;;;;0.73;0.73;;;5.70;99.90;;;;;;5071090;28;20204;-78
2022/01/29 06:44:20;;;;;;;1.23;0.67;;;5.70;99.90;;;;;;5061345;28;20193;-78
2022/01/29 06:46:45;;;;;;;0.57;0.57;;;5.60;99.90;;;;;;5061492;28;20189;-78
2022/01/29 06:49:11;;;;;;;0.93;0.90;;;5.60;99.90;;;;;;5061425;28;20200;-78
2022/01/29 06:51:36;;;;;;;1.00;0.37;;;5.60;99.90;;;;;;5062733;28;20652;-78
2022/01/29 06:54:02;;;;;;;0.20;0.20;;;5.60;99.90;;;;;;5062287;28;20263;-78
2022/01/29 06:56:27;;;;;;;0.20;0.20;;;5.60;99.90;;;;;;5069485;28;20219;-81
2022/01/29 06:58:53;;;;;;;0.70;0.70;;;5.60;99.90;;;;;;5067182;28;20288;-80
2022/01/29 07:01:18;;;;;;;0.20;0.20;;;5.60;99.90;;;;;;5063837;28;20388;-82
2022/01/29 07:03:44;;;;;;;0.43;0.30;;;5.60;99.90;;;;;;5068057;28;20184;-82
2022/01/29 07:06:10;;;;;;;1.03;0.43;;;5.60;99.90;;;;;;5069148;28;20189;-81
2022/01/29 07:08:38;;;;;;;0.20;0.20;;;5.70;99.90;;;;;;5066156;28;20199;-81
2022/01/29 07:11:03;;;;;;;0.40;0.40;;;5.60;99.90;;;;;;5068497;28;20204;-81
2022/01/29 07:13:30;;;;;;;1.57;0.97;;;5.70;99.90;;;;;;5067567;28;20184;-81
2022/01/29 07:15:56;;;;;;;0.50;0.50;;;5.60;99.90;;;;;;5068744;28;20177;-81
2022/01/29 07:18:21;;;;;;;0.30;0.30;;;5.60;99.90;;;;;;5068514;28;20214;-80
2022/01/29 07:20:48;;;;;;;1.13;0.47;;;5.60;99.90;;;;;;5065569;28;20208;-82
2022/01/29 07:23:13;;;;;;;0.30;0.30;;;5.50;99.90;;;;;;5062753;28;20677;-78
2022/01/29 07:25:39;;;;;;;1.00;0.70;;;5.60;99.90;;;;;;5061790;28;20194;-78
2022/01/29 07:28:05;;;;;;;0.63;0.63;;;5.50;99.90;;;;;;5063188;28;20177;-78
2022/01/29 07:30:30;;;;;;;0.47;0.47;;;5.50;99.90;;;;;;5056948;28;20216;-78
2022/01/29 07:32:56;;;;;;;0.40;0.40;;;5.50;99.90;;;;;;5056401;28;20387;-78
2022/01/29 07:35:21;;;;;;;0.60;0.60;;;5.60;99.90;;;;;;5060811;28;20267;-79
2022/01/29 07:37:47;;;;;;;0.57;0.57;;;5.60;99.90;;;;;;5059552;28;20619;-78
2022/01/29 07:40:13;;;;;;;0.40;0.40;;;5.60;99.90;;;;;;5062469;28;20204;-78
2022/01/29 07:42:38;;;;;;;0.30;0.30;;;5.60;99.90;;;;;;5064945;28;20194;-78
2022/01/29 07:45:05;;;;;;;0.37;0.37;;;5.60;99.90;;;;;;5065689;28;20665;-79
2022/01/29 07:47:30;;;;;;;1.07;0.37;;;5.60;99.90;;;;;;5062459;28;20633;-78
2022/01/29 07:49:56;;;;;;;0.33;0.33;;;5.60;99.90;;;;;;5066452;28;20274;-78
2022/01/29 07:52:21;;;;;;;1.03;0.33;;;5.70;99.90;;;;;;5065082;28;20181;-78
2022/01/29 07:54:47;;;;;;;0.77;0.60;;;5.70;99.90;;;;;;5065501;28;20193;-78
2022/01/29 07:57:13;;;;;;;0.57;0.57;;;5.70;99.90;;;;;;5065019;28;20234;-78
2022/01/29 07:59:38;;;;;;;1.07;0.50;;;5.90;99.90;;;;;;5063747;28;20203;-78
2022/01/29 08:02:04;;;;;;;0.23;0.23;;;5.80;99.90;;;;;;5064111;28;20221;-78
2022/01/29 08:04:29;;;;;;;1.80;0.30;;;5.80;99.90;;;;;;5063721;28;20193;-78
2022/01/29 08:06:55;;;;;;;0.67;0.37;;;5.80;99.90;;;;;;5064439;28;20185;-78
2022/01/29 08:09:20;;;;;;;0.27;0.27;;;5.70;99.90;;;;;;5064265;28;20652;-78
2022/01/29 08:11:46;;;;;;;0.67;0.20;;;5.80;99.90;;;;;;5064445;28;20248;-78
2022/01/29 08:14:12;;;;;;;0.47;0.30;;;5.90;99.90;;;;;;5064834;28;20275;-78
2022/01/29 08:16:37;;;;;;;0.57;0.57;;;5.80;99.90;;;;;;5063385;28;20196;-78
2022/01/29 08:19:03;;;;;;;0.43;0.20;;;5.80;99.90;;;;;;5065478;28;20196;-78
2022/01/29 08:21:28;;;;;;;0.20;0.20;;;5.80;99.90;;;;;;5062665;28;20219;-79
2022/01/29 08:23:54;;;;;;;0.20;0.20;;;5.80;99.90;;;;;;5067048;28;20197;-79
2022/01/29 08:26:19;;;;;;;0.30;0.30;;;5.80;99.90;;;;;;5066578;28;20667;-78
2022/01/29 08:28:45;;;;;;;0.37;0.30;;;5.80;99.90;;;;;;5066394;28;20189;-79
2022/01/29 08:31:10;;;;;;;0.27;0.27;;;5.70;99.90;;;;;;5066409;28;20213;-78
2022/01/29 08:33:36;;;;;;;0.33;0.33;;;5.80;99.90;;;;;;5063022;28;20820;-78
2022/01/29 08:36:03;;;;;;;0.20;0.20;;;5.80;99.90;;;;;;5064518;28;20185;-79
2022/01/29 08:38:29;;;;;;;0.10;0.10;;;5.70;99.90;;;;;;5068222;28;20185;-79
2022/01/29 08:40:54;;;;;;;1.90;0.70;;;5.70;99.90;;;;;;5071608;28;21113;-79
2022/01/29 08:43:21;;;;;;;0.60;0.60;;;5.70;99.90;;;;;;5067620;28;20264;-79
2022/01/29 08:45:50;;;;;;;0.60;0.43;;;5.80;99.90;;;;;;5066654;28;20205;-80
2022/01/29 08:48:16;;;;;;;0.30;0.30;;;5.70;99.90;;;;;;5069404;28;20178;-79
2022/01/29 08:50:42;;;;;;;0.20;0.20;;;5.70;99.90;;;;;;5067285;28;20217;-78
2022/01/29 08:53:07;;;;;;;0.17;0.17;;;5.70;99.90;;;;;;5069513;28;20201;-78
2022/01/29 08:55:36;;;;;;;0.37;0.37;;;5.80;99.90;;;;;;5065283;28;20205;-79
2022/01/29 08:58:04;;;;;;;0.30;0.17;;;5.90;99.90;;;;;;5071249;28;20177;-80
2022/01/29 09:00:29;;;;;;;0.40;0.40;;;5.80;99.90;;;;;;5067628;28;20224;-77
2022/01/29 09:02:55;;;;;;;0.20;0.20;;;5.80;99.90;;;;;;5066409;28;20709;-78
2022/01/29 09:05:22;;;;;;;0.40;0.30;;;5.80;99.90;;;;;;5066616;28;20677;-78
2022/01/29 09:07:47;;;;;;;0.83;0.23;;;5.80;99.90;;;;;;5069786;28;20230;-79
2022/01/29 09:10:13;;;;;;;0.10;0.10;;;5.80;99.90;;;;;;5065811;28;20604;-79
2022/01/29 09:12:39;;;;;;;0.10;0.10;;;5.80;99.90;;;;;;5066938;28;20188;-80
2022/01/29 09:15:05;;;;;;;0.10;0.10;;;5.80;99.90;;;;;;5072819;28;20208;-80
2022/01/29 09:17:31;;;;;;;0.20;0.20;;;5.80;99.90;;;;;;5065859;28;20238;-79
2022/01/29 09:19:56;;;;;;;0.30;0.30;;;5.80;99.90;;;;;;5067139;28;20201;-79
2022/01/29 09:22:22;;;;;;;0.10;0.10;;;5.80;99.90;;;;;;5066823;28;20682;-79
2022/01/29 09:24:47;;;;;;;0.40;0.40;;;5.80;99.90;;;;;;5067588;28;20215;-79
2022/01/29 09:27:13;;;;;;;0.20;0.20;;;5.80;99.90;;;;;;5062253;28;20575;-79
2022/01/29 09:29:38;;;;;;;0.70;0.40;;;5.80;99.90;;;;;;5062848;28;20238;-79
2022/01/29 09:32:04;;;;;;;0.30;0.30;;;5.80;99.90;;;;;;5063442;28;20212;-79
2022/01/29 09:34:30;;;;;;;0.20;0.20;;;5.80;99.90;;;;;;5064233;28;20185;-78
2022/01/29 09:36:55;;;;;;;0.30;0.30;;;5.80;99.90;;;;;;5060431;28;20638;-79
2022/01/29 09:39:21;;;;;;;0.40;0.40;;;5.80;99.90;;;;;;5061479;28;20213;-78
2022/01/29 09:41:46;;;;;;;0.40;0.40;;;5.80;99.90;;;;;;5051935;28;20209;-78
2022/01/29 09:44:13;;;;;;;0.20;0.20;;;5.80;99.90;;;;;;5068501;28;20173;-79
2022/01/29 09:46:40;;;;;;;0.40;0.40;;;5.80;99.90;;;;;;5063055;28;20238;-78
2022/01/29 09:49:06;;;;;;;0.10;0.10;;;5.90;99.90;;;;;;5066017;28;20184;-78
2022/01/29 09:51:31;;;;;;;2.43;0.43;;;6.00;99.90;;;;;;5065920;28;20209;-78
2022/01/29 09:53:57;;;;;;;0.10;0.10;;;6.10;99.90;;;;;;5068284;28;20705;-78
2022/01/29 09:56:22;;;;;;;0.20;0.20;;;6.10;99.90;;;;;;5063491;28;20193;-78
2022/01/29 09:58:49;;;;;;;0.90;0.27;;;6.10;99.90;;;;;;5061830;28;20303;-80
2022/01/29 10:01:14;;;;;;;0.63;0.33;;;6.20;99.90;;;;;;5066908;28;20632;-78
2022/01/29 10:03:40;;;;;;;1.17;0.30;;;6.20;99.90;;;;;;5061840;28;20181;-78
2022/01/29 10:06:15;;;;;;;0.30;0.30;;;6.20;99.90;;;;;;5065886;28;20181;-78
2022/01/29 10:08:43;;;;;;;0.30;0.30;;;6.10;99.90;;;;;;5065435;28;20247;-78
2022/01/29 10:11:39;;;;;;;0.10;0.10;;;6.20;99.90;;;;;;5066209;28;20210;-78
2022/01/29 10:14:05;;;;;;;0.10;0.10;;;6.30;99.90;;;;;;5057082;28;20200;-78
2022/01/29 10:16:33;;;;;;;0.10;0.10;;;6.20;99.90;;;;;;5066630;28;20310;-77
2022/01/29 10:19:02;;;;;;;0.17;0.17;;;6.20;99.90;;;;;;5066737;28;20252;-77
2022/01/29 10:21:30;;;;;;;0.10;0.10;;;6.10;99.90;;;;;;5067327;28;20201;-77
2022/01/29 10:24:16;;;;;;;0.47;0.47;;;6.10;99.90;;;;;;5063566;28;20913;-78
2022/01/29 10:26:46;;;;;;;0.43;0.43;;;6.20;99.90;;;;;;5061365;28;20180;-77
2022/01/29 10:29:21;;;;;;;0.10;0.10;;;6.20;99.90;;;;;;5064608;28;21096;-78
2022/01/29 10:31:48;;;;;;;0.10;0.10;;;6.20;99.90;;;;;;5062574;28;20208;-78
2022/01/29 10:34:23;;;;;;;0.20;0.20;;;6.20;99.90;;;;;;5060330;28;20248;-77
2022/01/29 10:37:18;;;;;;;0.10;0.10;;;6.30;99.90;;;;;;5062916;28;20168;-79
2022/01/29 10:39:58;;;;;;;0.10;0.10;;;6.30;99.90;;;;;;5060810;28;20651;-78
2022/01/29 10:42:25;;;;;;;0.00;0.00;;;6.30;99.90;;;;;;5064513;28;20273;-78
2022/01/29 10:44:54;;;;;;;0.20;0.20;;;6.40;99.90;;;;;;5062014;28;20256;-77
2022/01/29 10:47:20;;;;;;;0.40;0.40;;;6.50;99.90;;;;;;5062199;28;20212;-77
2022/01/29 10:49:54;;;;;;;0.10;0.10;;;6.50;99.90;;;;;;5061164;28;20657;-77
2022/01/29 10:52:38;;;;;;;0.20;0.20;;;6.50;99.90;;;;;;5061491;28;20283;-77
2022/01/29 10:55:08;;;;;;;0.00;0.00;;;6.60;99.90;;;;;;5072815;28;20174;-77
2022/01/29 10:57:44;;;;;;;0.10;0.10;;;6.60;99.90;;;;;;5063225;28;20246;-77
2022/01/29 11:00:18;;;;;;;0.37;0.37;;;6.60;99.90;;;;;;5061633;28;20262;-77
2022/01/29 11:02:44;;;;;;;0.30;0.30;;;6.60;99.90;;;;;;5060914;28;20173;-77
2022/01/29 11:05:11;;;;;;;0.10;0.10;;;6.60;99.90;;;;;;5059196;28;20625;-78
2022/01/29 11:07:37;;;;;;;0.30;0.30;;;6.80;99.90;;;;;;5059564;28;20170;-77
2022/01/29 11:10:05;;;;;;;0.20;0.20;;;6.80;99.90;;;;;;5060202;28;20192;-77
2022/01/29 11:12:31;;;;;;;0.10;0.10;;;6.90;99.90;;;;;;5060340;28;20220;-77
2022/01/29 11:14:59;;;;;;;0.10;0.10;;;6.90;99.90;;;;;;5063144;28;20220;-78
2022/01/29 11:17:29;;;;;;;0.50;0.50;;;6.90;99.90;;;;;;5067113;28;20284;-78
2022/01/29 11:19:55;;;;;;;0.10;0.10;;;7.00;99.90;;;;;;5066967;28;20194;-78
2022/01/29 11:22:27;;;;;;;0.10;0.10;;;7.00;99.90;;;;;;5068076;28;20181;-78
2022/01/29 11:25:02;;;;;;;0.10;0.10;;;7.00;99.90;;;;;;5068726;28;20212;-78
2022/01/29 11:27:30;;;;;;;0.57;0.57;;;7.00;99.90;;;;;;5067172;28;20172;-79
2022/01/29 11:30:09;;;;;;;0.10;0.10;;;7.00;99.90;;;;;;5070171;28;20212;-79
2022/01/29 11:32:45;;;;;;;0.23;0.23;;;7.00;99.90;;;;;;5067287;28;20190;-79
2022/01/29 11:35:22;;;;;;;0.10;0.10;;;7.00;99.90;;;;;;5068982;28;20214;-79
2022/01/29 11:37:52;;;;;;;0.20;0.20;;;7.00;99.90;;;;;;5067981;28;20215;-79
2022/01/29 11:40:24;;;;;;;0.10;0.10;;;6.90;99.90;;;;;;5069284;28;20209;-79
2022/01/29 11:43:09;;;;;;;1.20;0.30;;;6.90;99.90;;;;;;5068222;28;20177;-80
2022/01/29 11:46:03;;;;;;;0.13;0.13;;;6.90;99.90;;;;;;5068309;28;20185;-79
2022/01/29 11:50:56;;;;;;;0.20;0.20;;;6.90;99.90;;;;;;5068687;28;20210;-79
2022/01/29 11:53:23;;;;;;;0.10;0.10;;;6.90;99.90;;;;;;5064947;28;20548;-80
2022/01/29 11:55:53;;;;;;;0.10;0.10;;;6.80;99.90;;;;;;5067879;28;20215;-81
2022/01/29 11:58:29;;;;;;;0.20;0.20;;;6.80;99.90;;;;;;5066196;28;20199;-79
2022/01/29 12:01:00;;;;;;;0.13;0.13;;;6.80;99.90;;;;;;5066248;28;20709;-79
2022/01/29 12:09:12;;;;;;;0.10;0.10;;;7.00;99.90;;;;;;5065180;28;20185;-79
2022/01/29 12:11:41;;;;;;;0.30;0.30;;;7.10;99.90;;;;;;5064224;28;20214;-79
2022/01/29 12:14:13;;;;;;;0.13;0.13;;;7.20;99.90;;;;;;5065597;28;20200;-79
2022/01/29 12:17:07;;;;;;;0.30;0.30;;;7.20;99.90;;;;;;5066772;28;20192;-79
2022/01/29 12:19:46;;;;;;;0.30;0.30;;;7.30;99.90;;;;;;5064355;28;20196;-78
2022/01/29 12:22:17;;;;;;;0.20;0.20;;;7.30;99.90;;;;;;5064214;28;20624;-79
2022/01/29 12:24:58;;;;;;;0.20;0.20;;;7.40;99.90;;;;;;5065119;28;20185;-79
2022/01/29 12:27:38;;;;;;;0.13;0.13;;;7.50;99.90;;;;;;5063783;28;20174;-79
2022/01/29 12:30:04;;;;;;;0.10;0.10;;;7.50;99.90;;;;;;5063756;28;20235;-79
2022/01/29 12:32:29;;;;;;;0.20;0.20;;;7.50;99.90;;;;;;5062369;28;20299;-80
2022/01/29 12:34:55;;;;;;;0.10;0.10;;;7.40;99.90;;;;;;5065253;28;20244;-79
2022/01/29 12:37:20;;;;;;;0.10;0.10;;;7.40;99.90;;;;;;5063266;28;20177;-78
2022/01/29 12:39:48;;;;;;;0.10;0.10;;;7.30;99.90;;;;;;5064823;28;20189;-78
2022/01/29 12:44:57;;;;;;;0.30;0.27;;;7.40;99.90;;;;;;5062783;28;20264;-79
2022/01/29 12:47:29;;;;;;;0.10;0.10;;;7.40;99.90;;;;;;5060466;28;20275;-78
2022/01/29 12:49:55;;;;;;;0.00;0.00;;;7.40;99.90;;;;;;5063387;28;20182;-79
2022/01/29 12:52:21;;;;;;;0.27;0.27;;;7.50;99.90;;;;;;5064248;28;21134;-79
2022/01/29 12:54:55;;;;;;;0.40;0.40;;;7.70;99.90;;;;;;5063907;28;20211;-79
2022/01/29 12:57:21;;;;;;;0.20;0.20;;;7.70;99.90;;;;;;5063166;28;20684;-79
2022/01/29 12:59:47;;;;;;;0.13;0.13;;;7.80;99.90;;;;;;5063252;28;20197;-79
2022/01/29 13:02:14;;;;;;;0.10;0.10;;;7.80;99.90;;;;;;5064051;28;20216;-79
2022/01/29 13:04:39;;;;;;;0.10;0.10;;;7.80;99.90;;;;;;5064029;28;20269;-79
2022/01/29 13:07:07;;;;;;;0.00;0.00;;;7.80;99.90;;;;;;5064424;28;20265;-79
2022/01/29 13:09:36;;;;;;;0.37;0.37;;;7.80;99.90;;;;;;5066589;28;20185;-79
2022/01/29 13:12:06;;;;;;;0.30;0.30;;;7.90;99.90;;;;;;5064539;28;20213;-78
2022/01/29 13:14:33;;;;;;;0.20;0.20;;;7.90;99.90;;;;;;5065006;28;20173;-78
2022/01/29 13:17:04;;;;;;;0.10;0.10;;;7.90;99.90;;;;;;5064382;28;20258;-78
2022/01/29 13:19:31;;;;;;;0.20;0.20;;;7.80;99.90;;;;;;5064649;28;20654;-78
2022/01/29 13:22:01;;;;;;;0.10;0.10;;;7.90;99.90;;;;;;5060362;28;20212;-78
2022/01/29 13:24:27;;;;;;;0.10;0.10;;;8.00;99.90;;;;;;5054449;28;20186;-78